createdAt,value
2022-08-24T00:00:29.776Z,20.51
2022-08-24T00:03:06.412Z,20.53
2022-08-24T00:05:36.068Z,20.56
2022-08-24T00:08:06.600Z,20.59
2022-08-24T00:10:37.007Z,20.60
2022-08-24T00:13:07.481Z,20.62
2022-08-24T00:15:37.809Z,20.61
2022-08-24T00:18:08.584Z,20.58
2022-08-24T00:20:40.031Z,20.55
2022-08-24T00:23:12.870Z,20.49
2022-08-24T00:25:43.156Z,20.42
2022-08-24T00:28:13.745Z,20.38
2022-08-24T00:30:44.171Z,20.35
2022-08-24T00:33:13.835Z,20.34
2022-08-24T00:35:44.915Z,20.32
2022-08-24T00:38:15.941Z,20.28
2022-08-24T00:40:49.023Z,20.25
2022-08-24T00:43:22.598Z,20.27
2022-08-24T00:46:03.582Z,20.29
2022-08-24T00:48:35.599Z,20.29
2022-08-24T00:51:15.333Z,20.28
2022-08-24T00:53:50.415Z,20.26
2022-08-24T00:56:35.694Z,20.26
2022-08-24T00:59:12.988Z,20.31
2022-08-24T01:01:44.737Z,20.35
2022-08-24T01:04:24.490Z,20.36
2022-08-24T01:06:54.539Z,20.37
2022-08-24T01:09:29.394Z,20.37
2022-08-24T01:12:01.766Z,20.38
2022-08-24T01:14:32.206Z,20.43
2022-08-24T01:17:22.375Z,20.45
2022-08-24T01:19:56.267Z,20.44
2022-08-24T01:23:08.254Z,20.45
2022-08-24T01:25:42.114Z,20.49
2022-08-24T01:28:25.188Z,20.50
2022-08-24T01:30:58.955Z,20.51
2022-08-24T01:33:32.273Z,20.51
2022-08-24T01:36:30.579Z,20.52
2022-08-24T01:39:08.236Z,20.52
2022-08-24T01:41:37.168Z,20.51
2022-08-24T01:44:07.877Z,20.51
2022-08-24T01:46:40.576Z,20.49
2022-08-24T01:49:11.650Z,20.49
2022-08-24T01:51:41.735Z,20.40
2022-08-24T01:54:12.723Z,20.27
2022-08-24T01:56:44.507Z,20.15
2022-08-24T01:59:16.595Z,20.07
2022-08-24T02:01:53.252Z,20.00
2022-08-24T02:04:22.970Z,19.96
2022-08-24T02:06:54.998Z,19.93
2022-08-24T02:09:33.293Z,19.89
2022-08-24T02:12:04.833Z,19.88
2022-08-24T02:14:37.086Z,19.95
2022-08-24T02:17:08.884Z,19.98
2022-08-24T02:19:41.250Z,19.98
2022-08-24T02:22:12.932Z,19.99
2022-08-24T02:24:46.912Z,20.01
2022-08-24T02:27:16.813Z,20.03
2022-08-24T02:29:50.517Z,20.06
2022-08-24T02:32:23.186Z,20.06
2022-08-24T02:34:54.978Z,20.04
2022-08-24T02:37:25.771Z,20.06
2022-08-24T02:39:55.901Z,20.08
2022-08-24T02:42:27.125Z,20.12
2022-08-24T02:44:56.413Z,20.16
2022-08-24T02:47:32.810Z,20.19
2022-08-24T02:50:16.532Z,20.21
2022-08-24T02:52:46.643Z,20.19
2022-08-24T02:55:19.798Z,20.19
2022-08-24T02:57:52.353Z,20.21
2022-08-24T03:00:25.306Z,20.23
2022-08-24T03:02:58.205Z,20.25
2022-08-24T03:05:28.634Z,20.25
2022-08-24T03:07:59.917Z,20.25
2022-08-24T03:10:33.637Z,20.25
2022-08-24T03:13:03.970Z,20.25
2022-08-24T03:15:36.190Z,20.26
2022-08-24T03:18:05.904Z,20.24
2022-08-24T03:20:37.870Z,20.22
2022-08-24T03:23:07.227Z,20.20
2022-08-24T03:25:37.717Z,20.18
2022-08-24T03:28:10.998Z,20.16
2022-08-24T03:30:46.850Z,20.16
2022-08-24T03:33:21.789Z,20.17
2022-08-24T03:35:52.853Z,20.19
2022-08-24T03:38:23.691Z,20.21
2022-08-24T03:40:56.712Z,20.21
2022-08-24T03:43:49.126Z,20.20
2022-08-24T03:46:25.538Z,20.19
2022-08-24T03:49:00.415Z,20.19
2022-08-24T03:51:32.068Z,20.20
2022-08-24T03:54:03.422Z,20.21
2022-08-24T03:56:35.770Z,20.22
2022-08-24T03:59:08.449Z,20.25
2022-08-24T04:01:41.273Z,20.26
2022-08-24T04:04:14.623Z,20.28
2022-08-24T04:06:47.222Z,20.31
2022-08-24T04:09:19.714Z,20.31
2022-08-24T04:11:52.073Z,20.30
2022-08-24T04:14:28.012Z,20.30
2022-08-24T04:17:19.333Z,20.28
2022-08-24T04:19:59.187Z,20.27
2022-08-24T04:22:39.454Z,20.27
2022-08-24T04:25:11.437Z,20.28
2022-08-24T04:27:41.854Z,20.28
2022-08-24T04:30:14.632Z,20.31
2022-08-24T04:33:17.111Z,20.35
2022-08-24T04:51:45.753Z,21.12
2022-08-24T04:55:14.084Z,21.08
2022-08-24T05:06:08.714Z,21.04
2022-08-24T05:13:05.203Z,21.04
2022-08-24T05:16:34.865Z,21.04
2022-08-24T05:27:19.098Z,21.13
2022-08-24T05:41:22.737Z,21.53
2022-08-24T05:44:13.569Z,21.78
2022-08-24T05:47:34.515Z,21.98
2022-08-24T05:50:53.758Z,22.22
2022-08-24T05:53:43.968Z,22.45
2022-08-24T05:56:38.222Z,22.70
2022-08-24T05:59:47.696Z,22.84
2022-08-24T06:02:53.062Z,23.02
2022-08-24T06:06:23.473Z,23.20
2022-08-24T06:09:34.565Z,23.42
2022-08-24T06:12:45.712Z,23.77
2022-08-24T06:15:23.334Z,24.08
2022-08-24T06:18:01.355Z,24.35
2022-08-24T06:20:41.377Z,24.56
2022-08-24T06:23:29.986Z,24.76
2022-08-24T06:26:24.602Z,24.92
2022-08-24T06:28:54.944Z,25.04
2022-08-24T06:31:25.583Z,25.20
2022-08-24T06:34:04.135Z,25.26
2022-08-24T06:37:49.131Z,25.40
2022-08-24T06:40:21.693Z,25.67
2022-08-24T06:42:53.938Z,25.83
2022-08-24T06:45:37.058Z,26.05
2022-08-24T06:48:09.671Z,26.25
2022-08-24T06:50:41.875Z,26.41
2022-08-24T06:53:15.250Z,26.47
2022-08-24T06:55:50.007Z,26.51
2022-08-24T06:58:21.050Z,26.64
2022-08-24T07:00:51.933Z,26.81
2022-08-24T07:03:25.547Z,26.94
2022-08-24T07:06:05.187Z,27.09
2022-08-24T07:08:45.164Z,27.22
2022-08-24T07:11:21.246Z,27.72
2022-08-24T07:13:51.787Z,29.16
2022-08-24T07:16:22.726Z,30.74
2022-08-24T07:18:57.249Z,32.13
2022-08-24T07:21:27.261Z,33.27
2022-08-24T07:23:59.720Z,34.34
2022-08-24T07:26:31.830Z,35.28
2022-08-24T07:29:25.018Z,36.20
2022-08-24T07:32:01.909Z,37.07
2022-08-24T07:34:39.912Z,37.38
2022-08-24T07:37:10.027Z,37.74
2022-08-24T07:39:42.778Z,38.10
2022-08-24T07:42:18.845Z,38.58
2022-08-24T07:44:54.697Z,39.09
2022-08-24T07:47:38.164Z,39.44
2022-08-24T07:50:19.122Z,39.97
2022-08-24T07:52:49.550Z,40.62
2022-08-24T07:55:20.868Z,41.04
2022-08-24T07:57:51.619Z,41.51
2022-08-24T08:00:23.929Z,42.02
2022-08-24T08:02:59.417Z,42.51
2022-08-24T08:05:33.654Z,42.94
2022-08-24T08:08:07.042Z,43.29
2022-08-24T08:10:39.208Z,43.26
2022-08-24T08:13:12.093Z,43.44
2022-08-24T08:15:42.693Z,43.80
2022-08-24T08:18:14.088Z,44.04
2022-08-24T08:20:47.430Z,44.29
2022-08-24T08:23:38.302Z,44.33
2022-08-24T08:26:25.089Z,44.49
2022-08-24T08:29:10.826Z,44.71
2022-08-24T08:31:43.178Z,44.88
2022-08-24T08:34:15.445Z,45.19
2022-08-24T08:36:48.998Z,45.53
2022-08-24T08:39:23.727Z,45.61
2022-08-24T08:42:07.778Z,45.82
2022-08-24T08:44:50.504Z,46.12
2022-08-24T08:50:56.487Z,46.55
2022-08-24T08:53:42.958Z,46.74
2022-08-24T08:56:40.514Z,46.76
2022-08-24T08:59:26.292Z,46.88
2022-08-24T09:02:36.230Z,47.06
2022-08-24T09:05:31.410Z,47.25
2022-08-24T09:08:36.868Z,47.30
2022-08-24T09:12:00.244Z,47.38
2022-08-24T09:14:58.403Z,47.51
2022-08-24T09:18:03.754Z,47.50
2022-08-24T09:20:51.569Z,47.22
2022-08-24T09:23:29.948Z,47.16
2022-08-24T09:26:21.567Z,47.37
2022-08-24T09:29:25.179Z,47.34
2022-08-24T09:32:02.000Z,46.98
2022-08-24T09:34:38.785Z,46.73
2022-08-24T09:37:40.487Z,46.92
2022-08-24T09:40:28.587Z,46.94
2022-08-24T09:43:24.812Z,46.85
2022-08-24T09:45:58.231Z,46.86
2022-08-24T09:49:06.333Z,46.93
2022-08-24T09:52:00.656Z,46.70
2022-08-24T09:55:01.678Z,46.56
2022-08-24T09:58:00.620Z,46.59
2022-08-24T10:00:50.683Z,46.76
2022-08-24T10:03:42.671Z,47.00
2022-08-24T10:06:29.237Z,46.28
2022-08-24T10:09:29.626Z,45.29
2022-08-24T10:12:05.214Z,43.36
2022-08-24T10:14:53.461Z,42.42
2022-08-24T10:17:41.185Z,41.78
2022-08-24T10:20:29.304Z,41.02
2022-08-24T10:23:18.806Z,40.61
2022-08-24T10:26:14.146Z,41.32
2022-08-24T10:29:04.734Z,42.17
2022-08-24T10:31:39.024Z,42.61
2022-08-24T10:34:36.918Z,42.84
2022-08-24T10:37:51.067Z,42.99
2022-08-24T10:41:16.018Z,42.86
2022-08-24T10:44:09.347Z,42.37
2022-08-24T10:46:49.821Z,42.52
2022-08-24T10:49:38.632Z,42.55
2022-08-24T10:52:27.518Z,42.16
2022-08-24T10:54:59.697Z,41.68
2022-08-24T10:57:37.259Z,41.53
2022-08-24T11:00:23.008Z,41.78
2022-08-24T11:03:15.578Z,42.05
2022-08-24T11:05:49.723Z,42.18
2022-08-24T11:08:28.458Z,42.18
2022-08-24T11:11:14.800Z,41.81
2022-08-24T11:14:30.747Z,41.69
2022-08-24T11:17:23.648Z,41.65
2022-08-24T11:19:57.853Z,41.40
2022-08-24T11:22:51.905Z,41.05
2022-08-24T11:25:33.977Z,40.81
2022-08-24T11:28:11.287Z,40.21
2022-08-24T11:30:41.953Z,39.61
2022-08-24T11:33:32.044Z,38.89
2022-08-24T11:36:02.805Z,38.39
2022-08-24T11:38:54.618Z,38.07
2022-08-24T11:41:35.638Z,37.91
2022-08-24T11:44:34.577Z,37.59
2022-08-24T11:47:36.618Z,37.29
2022-08-24T11:50:24.072Z,37.31
2022-08-24T11:53:18.999Z,37.36
2022-08-24T11:56:18.737Z,37.30
2022-08-24T11:58:59.967Z,37.13
2022-08-24T12:01:46.311Z,37.15
2022-08-24T12:04:19.059Z,37.09
2022-08-24T12:07:27.708Z,37.03
2022-08-24T12:10:06.884Z,36.93
2022-08-24T12:12:50.995Z,36.50
2022-08-24T12:16:01.757Z,36.17
2022-08-24T12:18:46.111Z,36.01
2022-08-24T12:21:19.907Z,35.82
2022-08-24T12:23:54.975Z,35.60
2022-08-24T12:27:02.029Z,35.29
2022-08-24T12:29:55.264Z,35.01
2022-08-24T12:32:28.766Z,34.81
2022-08-24T12:35:30.603Z,34.72
2022-08-24T12:38:09.540Z,34.53
2022-08-24T12:41:14.540Z,34.49
2022-08-24T12:44:02.883Z,34.56
2022-08-24T12:46:36.433Z,34.54
2022-08-24T12:49:33.704Z,34.44
2022-08-24T13:34:19.110Z,32.41
2022-08-24T13:37:24.595Z,32.33
2022-08-24T13:40:18.720Z,32.25
2022-08-24T13:43:09.142Z,32.23
2022-08-24T13:46:27.611Z,32.21
2022-08-24T13:49:16.294Z,32.23
2022-08-24T13:52:08.354Z,32.22
2022-08-24T13:55:03.368Z,32.21
2022-08-24T13:57:54.261Z,32.15
2022-08-24T14:00:47.958Z,32.12
2022-08-24T14:03:23.366Z,32.00
2022-08-24T14:06:13.525Z,31.98
2022-08-24T14:09:20.373Z,31.95
2022-08-24T14:12:17.013Z,31.93
2022-08-24T14:15:16.237Z,31.81
2022-08-24T14:18:21.821Z,31.77
2022-08-24T14:53:42.715Z,32.50
2022-08-24T15:17:24.451Z,31.27
2022-08-24T16:32:23.354Z,29.86
2022-08-24T18:31:53.708Z,24.90
2022-08-24T18:35:00.223Z,24.82
2022-08-24T18:45:21.752Z,24.55
2022-08-24T18:48:15.190Z,24.47
2022-08-24T18:51:47.774Z,24.40
2022-08-24T18:54:59.443Z,24.36
2022-08-24T18:58:22.342Z,24.32
2022-08-24T19:01:22.412Z,24.27
2022-08-24T19:04:52.968Z,24.22
2022-08-24T19:07:54.113Z,24.17
2022-08-24T19:32:13.923Z,23.88
2022-08-24T19:35:20.973Z,23.84
2022-08-24T19:38:45.490Z,23.84
2022-08-24T19:41:39.930Z,23.84
2022-08-24T19:47:43.131Z,23.79
2022-08-24T19:50:36.199Z,23.74
2022-08-24T19:53:13.346Z,23.71
2022-08-24T19:55:50.337Z,23.67
2022-08-24T19:58:54.021Z,23.64
2022-08-24T20:02:07.814Z,23.60
2022-08-24T20:04:44.675Z,23.56
2022-08-24T20:07:55.461Z,23.49
2022-08-24T20:10:28.928Z,23.42
2022-08-24T20:13:30.647Z,23.38
2022-08-24T20:16:34.580Z,23.33
2022-08-24T20:19:17.772Z,23.29
2022-08-24T20:22:28.983Z,23.24
2022-08-24T20:26:09.416Z,23.24
2022-08-24T20:29:00.608Z,23.19
2022-08-24T20:34:55.676Z,23.14
2022-08-24T20:37:31.757Z,23.11
2022-08-24T20:40:28.986Z,23.05
2022-08-24T20:43:18.706Z,22.99
2022-08-24T20:45:55.822Z,22.97
2022-08-24T20:48:34.152Z,22.95
2022-08-24T20:51:44.908Z,22.94
2022-08-24T20:54:42.056Z,22.89
2022-08-24T20:57:51.022Z,22.86
2022-08-24T21:01:16.906Z,22.85
2022-08-24T21:04:27.186Z,22.81
2022-08-24T21:08:04.797Z,22.78
2022-08-24T21:11:36.750Z,22.77
2022-08-24T21:14:33.345Z,22.74
2022-08-24T21:17:45.506Z,22.72
2022-08-24T21:21:03.322Z,22.67
2022-08-24T21:24:08.418Z,22.59
2022-08-24T21:27:06.269Z,22.56
2022-08-24T21:30:22.989Z,22.51
2022-08-24T21:33:55.144Z,22.49
2022-08-24T21:53:24.538Z,22.41
2022-08-24T21:56:40.757Z,22.38
2022-08-24T21:59:12.387Z,22.21
2022-08-24T22:02:13.472Z,22.13
2022-08-24T22:05:11.102Z,22.04
2022-08-24T22:08:22.146Z,22.01
2022-08-24T22:11:35.747Z,22.03
2022-08-24T22:14:48.112Z,22.08
2022-08-24T22:17:22.935Z,22.06
2022-08-24T22:20:32.930Z,22.07
2022-08-24T22:23:45.108Z,22.10
2022-08-24T22:26:54.781Z,22.11
2022-08-24T22:30:00.425Z,22.10
2022-08-24T22:32:38.283Z,21.94
2022-08-24T22:35:36.173Z,21.71
2022-08-24T22:42:27.161Z,21.07
2022-08-24T22:45:49.058Z,20.99
2022-08-24T22:49:03.317Z,20.90
2022-08-24T22:52:22.338Z,20.90
2022-08-24T22:55:43.153Z,20.87
2022-08-24T22:59:18.170Z,20.85
2022-08-24T23:02:36.575Z,20.93
2022-08-24T23:09:56.088Z,21.00
2022-08-24T23:13:20.836Z,21.06
2022-08-24T23:16:31.999Z,21.09
2022-08-24T23:19:47.962Z,21.17
2022-08-24T23:26:56.442Z,21.30
2022-08-24T23:37:28.911Z,21.31
2022-08-24T23:40:49.912Z,21.29
2022-08-24T23:47:59.928Z,21.03
2022-08-24T23:51:40.224Z,20.90
2022-08-24T23:54:53.771Z,20.81
2022-08-24T23:58:56.643Z,20.85
